sensor_id;sensor_type;location;lat;lon;timestamp;P1;durP1;ratioP1;P2;durP2;ratioP2
71162;SDS011;58858;50.948;6.566;2023-08-12T00:05:13;15.43;;;9.13;;
71162;SDS011;58858;50.948;6.566;2023-08-12T00:15:14;13.95;;;7.57;;
71162;SDS011;58858;50.948;6.566;2023-08-12T00:25:15;12.73;;;7.45;;
71162;SDS011;58858;50.948;6.566;2023-08-12T00:35:16;14.77;;;8.50;;
71162;SDS011;58858;50.948;6.566;2023-08-12T00:45:18;11.77;;;9.23;;
71162;SDS011;58858;50.948;6.566;2023-08-12T00:55:19;12.93;;;8.50;;
71162;SDS011;58858;50.948;6.566;2023-08-12T01:05:21;13.18;;;9.73;;
71162;SDS011;58858;50.948;6.566;2023-08-12T01:15:23;14.30;;;10.35;;
71162;SDS011;58858;50.948;6.566;2023-08-12T01:25:27;15.38;;;9.27;;
71162;SDS011;58858;50.948;6.566;2023-08-12T01:46:53;14.52;;;10.73;;
71162;SDS011;58858;50.948;6.566;2023-08-12T01:58:03;17.60;;;11.98;;
71162;SDS011;58858;50.948;6.566;2023-08-12T02:08:05;21.80;;;13.10;;
71162;SDS011;58858;50.948;6.566;2023-08-12T02:18:11;21.75;;;14.23;;
71162;SDS011;58858;50.948;6.566;2023-08-12T02:28:13;17.00;;;12.52;;
71162;SDS011;58858;50.948;6.566;2023-08-12T02:38:14;19.65;;;14.27;;
71162;SDS011;58858;50.948;6.566;2023-08-12T02:48:15;17.60;;;13.70;;
71162;SDS011;58858;50.948;6.566;2023-08-12T02:58:16;16.75;;;12.15;;
71162;SDS011;58858;50.948;6.566;2023-08-12T03:08:17;21.67;;;15.38;;
71162;SDS011;58858;50.948;6.566;2023-08-12T03:18:20;17.88;;;15.43;;
71162;SDS011;58858;50.948;6.566;2023-08-12T03:28:21;16.48;;;13.95;;
71162;SDS011;58858;50.948;6.566;2023-08-12T03:38:24;16.73;;;12.10;;
71162;SDS011;58858;50.948;6.566;2023-08-12T03:48:26;21.20;;;13.60;;
71162;SDS011;58858;50.948;6.566;2023-08-12T03:58:27;19.60;;;12.80;;
71162;SDS011;58858;50.948;6.566;2023-08-12T04:08:29;13.07;;;8.60;;
71162;SDS011;58858;50.948;6.566;2023-08-12T04:18:30;13.10;;;8.73;;
71162;SDS011;58858;50.948;6.566;2023-08-12T04:28:31;18.42;;;10.50;;
71162;SDS011;58858;50.948;6.566;2023-08-12T04:38:33;19.73;;;12.45;;
71162;SDS011;58858;50.948;6.566;2023-08-12T04:48:36;19.58;;;15.65;;
71162;SDS011;58858;50.948;6.566;2023-08-12T04:58:37;18.75;;;15.88;;
71162;SDS011;58858;50.948;6.566;2023-08-12T05:08:38;22.50;;;15.95;;
71162;SDS011;58858;50.948;6.566;2023-08-12T05:18:41;24.95;;;16.23;;
71162;SDS011;58858;50.948;6.566;2023-08-12T05:28:42;23.27;;;19.35;;
71162;SDS011;58858;50.948;6.566;2023-08-12T05:38:43;17.75;;;14.20;;
71162;SDS011;58858;50.948;6.566;2023-08-12T05:48:44;23.27;;;14.10;;
71162;SDS011;58858;50.948;6.566;2023-08-12T05:58:45;16.38;;;12.18;;
71162;SDS011;58858;50.948;6.566;2023-08-12T06:08:46;16.08;;;11.02;;
71162;SDS011;58858;50.948;6.566;2023-08-12T06:18:48;12.18;;;9.60;;
71162;SDS011;58858;50.948;6.566;2023-08-12T06:28:51;11.95;;;6.60;;
71162;SDS011;58858;50.948;6.566;2023-08-12T06:38:54;8.05;;;5.55;;
71162;SDS011;58858;50.948;6.566;2023-08-12T06:48:55;9.10;;;5.03;;
71162;SDS011;58858;50.948;6.566;2023-08-12T06:58:57;6.32;;;4.10;;
71162;SDS011;58858;50.948;6.566;2023-08-12T07:08:58;4.57;;;2.97;;
71162;SDS011;58858;50.948;6.566;2023-08-12T07:18:59;3.28;;;2.17;;
71162;SDS011;58858;50.948;6.566;2023-08-12T07:29:00;6.00;;;2.90;;
71162;SDS011;58858;50.948;6.566;2023-08-12T07:39:02;5.03;;;2.42;;
71162;SDS011;58858;50.948;6.566;2023-08-12T07:49:03;4.45;;;2.55;;
71162;SDS011;58858;50.948;6.566;2023-08-12T07:59:07;3.00;;;2.60;;
71162;SDS011;58858;50.948;6.566;2023-08-12T08:09:27;7.10;;;2.10;;
71162;SDS011;58858;50.948;6.566;2023-08-12T08:19:28;2.67;;;1.70;;
71162;SDS011;58858;50.948;6.566;2023-08-12T08:29:32;2.88;;;1.95;;
71162;SDS011;58858;50.948;6.566;2023-08-12T08:39:34;2.78;;;1.70;;
71162;SDS011;58858;50.948;6.566;2023-08-12T08:49:37;6.57;;;2.10;;
71162;SDS011;58858;50.948;6.566;2023-08-12T08:59:38;4.40;;;1.58;;
71162;SDS011;58858;50.948;6.566;2023-08-12T09:09:40;4.63;;;1.35;;
71162;SDS011;58858;50.948;6.566;2023-08-12T09:19:45;5.20;;;1.10;;
71162;SDS011;58858;50.948;6.566;2023-08-12T09:29:46;2.17;;;1.27;;
71162;SDS011;58858;50.948;6.566;2023-08-12T09:39:47;2.38;;;1.52;;
71162;SDS011;58858;50.948;6.566;2023-08-12T09:49:50;4.93;;;1.25;;
71162;SDS011;58858;50.948;6.566;2023-08-12T09:59:51;4.90;;;1.20;;
71162;SDS011;58858;50.948;6.566;2023-08-12T10:09:54;0.95;;;0.70;;
71162;SDS011;58858;50.948;6.566;2023-08-12T10:19:56;1.55;;;0.80;;
71162;SDS011;58858;50.948;6.566;2023-08-12T10:30:04;0.63;;;0.47;;
71162;SDS011;58858;50.948;6.566;2023-08-12T10:40:19;3.80;;;0.68;;
71162;SDS011;58858;50.948;6.566;2023-08-12T10:50:21;3.60;;;0.60;;
71162;SDS011;58858;50.948;6.566;2023-08-12T11:00:26;3.22;;;0.60;;
71162;SDS011;58858;50.948;6.566;2023-08-12T11:10:32;1.13;;;0.55;;
71162;SDS011;58858;50.948;6.566;2023-08-12T11:20:34;2.63;;;1.08;;
71162;SDS011;58858;50.948;6.566;2023-08-12T11:30:36;2.38;;;0.93;;
71162;SDS011;58858;50.948;6.566;2023-08-12T11:40:37;1.52;;;1.40;;
71162;SDS011;58858;50.948;6.566;2023-08-12T11:50:41;1.70;;;0.82;;
71162;SDS011;58858;50.948;6.566;2023-08-12T12:00:43;3.40;;;0.98;;
71162;SDS011;58858;50.948;6.566;2023-08-12T12:10:44;2.88;;;0.98;;
71162;SDS011;58858;50.948;6.566;2023-08-12T12:31:25;0.70;;;0.63;;
71162;SDS011;58858;50.948;6.566;2023-08-12T12:41:32;1.25;;;0.40;;
71162;SDS011;58858;50.948;6.566;2023-08-12T12:51:34;6.30;;;4.68;;
71162;SDS011;58858;50.948;6.566;2023-08-12T13:01:39;0.32;;;0.30;;
71162;SDS011;58858;50.948;6.566;2023-08-12T13:11:40;0.60;;;0.60;;
71162;SDS011;58858;50.948;6.566;2023-08-12T13:21:41;1.45;;;1.00;;
71162;SDS011;58858;50.948;6.566;2023-08-12T13:43:20;1.05;;;0.50;;
71162;SDS011;58858;50.948;6.566;2023-08-12T13:53:21;2.58;;;0.40;;
71162;SDS011;58858;50.948;6.566;2023-08-12T14:03:24;0.57;;;0.30;;
71162;SDS011;58858;50.948;6.566;2023-08-12T14:13:26;0.80;;;0.55;;
71162;SDS011;58858;50.948;6.566;2023-08-12T14:23:30;0.73;;;0.23;;
71162;SDS011;58858;50.948;6.566;2023-08-12T14:33:34;2.35;;;0.70;;
71162;SDS011;58858;50.948;6.566;2023-08-12T14:43:35;0.93;;;0.35;;
71162;SDS011;58858;50.948;6.566;2023-08-12T14:53:37;8.30;;;4.68;;
71162;SDS011;58858;50.948;6.566;2023-08-12T15:03:38;0.68;;;0.40;;
71162;SDS011;58858;50.948;6.566;2023-08-12T15:13:39;1.80;;;0.75;;
71162;SDS011;58858;50.948;6.566;2023-08-12T15:23:40;0.98;;;0.77;;
71162;SDS011;58858;50.948;6.566;2023-08-12T15:33:42;1.75;;;1.05;;
71162;SDS011;58858;50.948;6.566;2023-08-12T15:43:43;5.78;;;1.15;;
71162;SDS011;58858;50.948;6.566;2023-08-12T15:53:44;3.10;;;1.50;;
71162;SDS011;58858;50.948;6.566;2023-08-12T16:03:45;2.03;;;0.95;;
71162;SDS011;58858;50.948;6.566;2023-08-12T16:13:46;3.70;;;1.27;;
71162;SDS011;58858;50.948;6.566;2023-08-12T16:23:50;6.33;;;1.27;;
71162;SDS011;58858;50.948;6.566;2023-08-12T16:33:51;5.10;;;3.75;;
71162;SDS011;58858;50.948;6.566;2023-08-12T16:43:52;2.85;;;1.08;;
71162;SDS011;58858;50.948;6.566;2023-08-12T16:53:53;3.67;;;1.33;;
71162;SDS011;58858;50.948;6.566;2023-08-12T17:03:57;1.95;;;1.45;;
71162;SDS011;58858;50.948;6.566;2023-08-12T17:14:00;4.45;;;0.98;;
71162;SDS011;58858;50.948;6.566;2023-08-12T17:24:01;4.20;;;1.38;;
71162;SDS011;58858;50.948;6.566;2023-08-12T17:34:02;4.45;;;1.17;;
71162;SDS011;58858;50.948;6.566;2023-08-12T17:44:04;1.65;;;1.02;;
71162;SDS011;58858;50.948;6.566;2023-08-12T17:54:05;2.92;;;1.30;;
71162;SDS011;58858;50.948;6.566;2023-08-12T18:04:06;2.70;;;1.52;;
71162;SDS011;58858;50.948;6.566;2023-08-12T18:14:07;5.80;;;1.23;;
71162;SDS011;58858;50.948;6.566;2023-08-12T18:24:08;3.05;;;1.92;;
71162;SDS011;58858;50.948;6.566;2023-08-12T18:34:09;3.50;;;1.00;;
71162;SDS011;58858;50.948;6.566;2023-08-12T18:44:13;2.83;;;1.40;;
71162;SDS011;58858;50.948;6.566;2023-08-12T18:54:15;6.32;;;1.42;;
71162;SDS011;58858;50.948;6.566;2023-08-12T19:04:16;5.07;;;1.85;;
71162;SDS011;58858;50.948;6.566;2023-08-12T19:14:17;4.47;;;1.50;;
71162;SDS011;58858;50.948;6.566;2023-08-12T19:24:18;4.38;;;2.05;;
71162;SDS011;58858;50.948;6.566;2023-08-12T19:34:19;3.55;;;1.55;;
71162;SDS011;58858;50.948;6.566;2023-08-12T19:44:20;6.32;;;2.08;;
71162;SDS011;58858;50.948;6.566;2023-08-12T19:54:24;3.38;;;1.42;;
71162;SDS011;58858;50.948;6.566;2023-08-12T20:04:26;4.63;;;1.83;;
71162;SDS011;58858;50.948;6.566;2023-08-12T20:14:27;4.13;;;1.83;;
71162;SDS011;58858;50.948;6.566;2023-08-12T20:24:31;7.75;;;3.00;;
71162;SDS011;58858;50.948;6.566;2023-08-12T20:34:32;5.82;;;2.85;;
71162;SDS011;58858;50.948;6.566;2023-08-12T20:44:33;2.22;;;1.52;;
71162;SDS011;58858;50.948;6.566;2023-08-12T20:54:38;4.18;;;2.15;;
71162;SDS011;58858;50.948;6.566;2023-08-12T21:04:39;4.57;;;2.17;;
71162;SDS011;58858;50.948;6.566;2023-08-12T21:14:40;8.40;;;2.63;;
71162;SDS011;58858;50.948;6.566;2023-08-12T21:24:41;7.88;;;2.10;;
71162;SDS011;58858;50.948;6.566;2023-08-12T21:34:43;4.85;;;2.22;;
71162;SDS011;58858;50.948;6.566;2023-08-12T21:44:44;6.55;;;2.55;;
71162;SDS011;58858;50.948;6.566;2023-08-12T21:54:45;9.00;;;2.67;;
71162;SDS011;58858;50.948;6.566;2023-08-12T22:04:54;7.90;;;2.70;;
71162;SDS011;58858;50.948;6.566;2023-08-12T22:14:55;8.73;;;2.65;;
71162;SDS011;58858;50.948;6.566;2023-08-12T22:24:56;7.47;;;2.50;;
71162;SDS011;58858;50.948;6.566;2023-08-12T22:34:57;5.38;;;2.38;;
71162;SDS011;58858;50.948;6.566;2023-08-12T22:44:58;5.45;;;2.45;;
71162;SDS011;58858;50.948;6.566;2023-08-12T22:54:59;5.55;;;1.95;;
71162;SDS011;58858;50.948;6.566;2023-08-12T23:05:00;5.97;;;2.38;;
71162;SDS011;58858;50.948;6.566;2023-08-12T23:15:01;4.32;;;2.17;;
71162;SDS011;58858;50.948;6.566;2023-08-12T23:25:03;5.93;;;2.65;;
71162;SDS011;58858;50.948;6.566;2023-08-12T23:35:05;6.95;;;2.00;;
71162;SDS011;58858;50.948;6.566;2023-08-12T23:45:06;3.83;;;1.98;;
71162;SDS011;58858;50.948;6.566;2023-08-12T23:55:08;4.75;;;1.83;;
